createdAt,value
2023-01-20T00:02:20.233Z,99688.38
2023-01-20T00:04:51.847Z,99686.40
2023-01-20T00:07:23.092Z,99682.33
2023-01-20T00:09:53.548Z,99687.23
2023-01-20T00:12:24.046Z,99688.03
2023-01-20T00:14:54.562Z,99684.71
2023-01-20T00:17:24.968Z,99680.30
2023-01-20T00:19:55.420Z,99682.22
2023-01-20T00:22:25.875Z,99684.14
2023-01-20T00:24:56.351Z,99684.21
2023-01-20T00:27:26.756Z,99683.78
2023-01-20T00:29:57.274Z,99685.34
2023-01-20T00:32:27.723Z,99685.94
2023-01-20T00:34:58.143Z,99688.15
2023-01-20T00:37:28.572Z,99687.54
2023-01-20T00:39:59.296Z,99682.39
2023-01-20T00:42:29.904Z,99682.94
2023-01-20T00:45:00.442Z,99686.22
2023-01-20T00:47:30.861Z,99689.56
2023-01-20T00:50:01.398Z,99691.81
2023-01-20T00:52:31.935Z,99695.96
2023-01-20T00:55:02.572Z,99699.83
2023-01-20T00:57:32.983Z,99705.35
2023-01-20T01:00:03.397Z,99708.70
2023-01-20T01:02:38.304Z,99707.80
2023-01-20T01:05:10.035Z,99710.88
2023-01-20T01:07:40.490Z,99709.84
2023-01-20T01:10:12.855Z,99713.85
2023-01-20T01:12:43.342Z,99716.84
2023-01-20T01:15:14.645Z,99722.41
2023-01-20T01:17:46.234Z,99718.80
2023-01-20T01:20:17.095Z,99719.78
2023-01-20T01:22:47.521Z,99719.34
2023-01-20T01:25:18.574Z,99717.95
2023-01-20T01:27:48.987Z,99717.13
2023-01-20T01:30:19.957Z,99712.45
2023-01-20T01:32:51.073Z,99710.63
2023-01-20T01:35:21.687Z,99715.77
2023-01-20T01:37:52.129Z,99715.88
2023-01-20T01:40:22.627Z,99716.30
2023-01-20T01:42:53.182Z,99718.77
2023-01-20T01:45:29.482Z,99719.73
2023-01-20T01:48:06.734Z,99720.95
2023-01-20T01:50:45.634Z,99716.67
2023-01-20T01:53:15.475Z,99719.28
2023-01-20T01:55:50.629Z,99721.37
2023-01-20T01:58:25.626Z,99726.52
2023-01-20T02:00:56.408Z,99734.48
2023-01-20T02:03:28.018Z,99735.88
2023-01-20T02:05:59.000Z,99739.52
2023-01-20T02:08:29.486Z,99739.63
2023-01-20T02:11:00.033Z,99742.56
2023-01-20T02:13:30.665Z,99745.09
2023-01-20T02:16:11.123Z,99744.30
2023-01-20T02:18:53.338Z,99745.39
2023-01-20T02:22:02.362Z,99741.58
2023-01-20T02:25:17.130Z,99740.02
2023-01-20T02:28:14.494Z,99742.58
2023-01-20T02:31:24.595Z,99751.31
2023-01-20T02:34:02.031Z,99756.60
2023-01-20T02:37:36.701Z,99759.06
2023-01-20T02:40:20.276Z,99764.95
2023-01-20T02:42:58.418Z,99767.60
2023-01-20T02:45:36.450Z,99763.44
2023-01-20T02:48:15.475Z,99760.83
2023-01-20T02:50:54.053Z,99764.31
2023-01-20T02:53:27.051Z,99765.79
2023-01-20T02:55:58.064Z,99768.37
2023-01-20T02:58:34.751Z,99771.45
2023-01-20T03:01:10.907Z,99770.36
2023-01-20T03:03:45.292Z,99771.65
2023-01-20T03:06:22.432Z,99768.96
2023-01-20T03:08:56.435Z,99771.23
2023-01-20T03:11:27.608Z,99773.30
2023-01-20T03:14:05.652Z,99773.38
2023-01-20T03:16:36.514Z,99775.69
2023-01-20T03:19:07.050Z,99777.84
2023-01-20T03:21:37.789Z,99778.80
2023-01-20T03:24:09.567Z,99781.60
2023-01-20T03:26:40.628Z,99794.19
2023-01-20T03:29:12.734Z,99794.70
2023-01-20T03:31:47.678Z,99796.39
2023-01-20T03:34:22.317Z,99798.23
2023-01-20T03:36:54.280Z,99803.23
2023-01-20T03:39:25.833Z,99805.58
2023-01-20T03:42:07.881Z,99809.86
2023-01-20T03:44:54.647Z,99809.15
2023-01-20T03:47:37.176Z,99812.80
2023-01-20T03:50:17.053Z,99818.98
2023-01-20T03:52:54.126Z,99818.47
2023-01-20T03:55:29.730Z,99823.26
2023-01-20T03:58:05.293Z,99827.34
2023-01-20T04:00:38.884Z,99831.60
2023-01-20T04:03:11.681Z,99835.61
2023-01-20T04:05:44.663Z,99833.85
2023-01-20T04:08:18.904Z,99832.50
2023-01-20T04:10:51.891Z,99832.45
2023-01-20T04:13:22.310Z,99835.80
2023-01-20T04:15:53.067Z,99837.52
2023-01-20T04:18:25.289Z,99840.83
2023-01-20T04:20:58.130Z,99846.65
2023-01-20T04:23:34.635Z,99849.79
2023-01-20T04:26:05.493Z,99853.05
2023-01-20T04:28:35.965Z,99858.23
2023-01-20T04:31:09.871Z,99856.32
2023-01-20T04:33:43.717Z,99858.78
2023-01-20T04:36:14.132Z,99851.20
2023-01-20T04:38:44.585Z,99855.55
2023-01-20T04:41:15.511Z,99859.95
2023-01-20T04:43:47.794Z,99863.30
2023-01-20T04:46:18.612Z,99868.56
2023-01-20T04:48:49.366Z,99866.39
2023-01-20T04:51:19.897Z,99865.05
2023-01-20T04:53:50.499Z,99872.64
2023-01-20T04:56:20.945Z,99876.96
2023-01-20T04:58:51.596Z,99886.46
2023-01-20T05:01:22.329Z,99899.90
2023-01-20T05:03:52.896Z,99907.36
2023-01-20T05:06:23.353Z,99910.08
2023-01-20T05:08:53.922Z,99916.05
2023-01-20T05:11:24.361Z,99916.12
2023-01-20T05:13:54.817Z,99916.92
2023-01-20T05:16:26.132Z,99917.88
2023-01-20T05:18:56.638Z,99917.95
2023-01-20T05:21:27.326Z,99922.39
2023-01-20T05:23:58.614Z,99924.14
2023-01-20T05:26:29.352Z,99921.92
2023-01-20T05:29:00.197Z,99925.13
2023-01-20T05:31:30.730Z,99926.73
2023-01-20T05:34:01.331Z,99928.08
2023-01-20T05:36:32.929Z,99936.72
2023-01-20T05:39:03.528Z,99938.45
2023-01-20T05:41:33.991Z,99938.20
2023-01-20T05:44:04.437Z,99943.79
2023-01-20T05:46:34.886Z,99944.77
2023-01-20T05:49:05.371Z,99945.33
2023-01-20T05:51:35.865Z,99940.11
2023-01-20T05:54:06.668Z,99944.38
2023-01-20T05:56:37.073Z,99945.73
2023-01-20T05:59:07.989Z,99946.65
2023-01-20T06:01:38.481Z,99946.59
2023-01-20T06:04:09.048Z,99943.63
2023-01-20T06:06:40.174Z,99940.42
2023-01-20T06:09:11.131Z,99938.56
2023-01-20T06:11:41.619Z,99936.55
2023-01-20T06:14:12.196Z,99933.80
2023-01-20T06:16:42.651Z,99929.27
2023-01-20T06:19:13.416Z,99924.89
2023-01-20T06:21:46.067Z,99922.67
2023-01-20T06:24:17.785Z,99923.73
2023-01-20T06:26:50.877Z,99925.65
2023-01-20T06:29:22.032Z,99927.38
2023-01-20T06:31:52.557Z,99922.35
2023-01-20T06:34:23.195Z,99918.36
2023-01-20T06:36:53.814Z,99922.42
2023-01-20T06:39:24.295Z,99922.77
2023-01-20T06:41:57.933Z,99924.37
2023-01-20T06:44:28.463Z,99932.05
2023-01-20T06:46:59.300Z,99938.49
2023-01-20T06:49:30.159Z,99949.02
2023-01-20T06:52:00.640Z,99952.10
2023-01-20T06:54:31.122Z,99957.38
2023-01-20T06:57:01.587Z,99956.67
2023-01-20T06:59:32.061Z,99958.47
2023-01-20T07:02:03.623Z,99965.34
2023-01-20T07:04:34.222Z,99970.05
2023-01-20T07:07:04.607Z,99971.29
2023-01-20T07:09:35.006Z,99971.44
2023-01-20T07:12:06.028Z,99976.00
2023-01-20T07:14:36.522Z,99979.30
2023-01-20T07:17:09.814Z,99989.34
2023-01-20T07:19:40.240Z,99994.00
2023-01-20T07:22:10.702Z,99999.85
2023-01-20T07:24:41.191Z,100007.46
2023-01-20T07:27:11.649Z,100013.25
2023-01-20T07:29:42.144Z,100020.42
2023-01-20T07:32:12.938Z,100029.01
2023-01-20T07:34:43.373Z,100029.05
2023-01-20T07:37:13.778Z,100036.19
2023-01-20T07:39:44.203Z,100034.48
2023-01-20T07:42:14.632Z,100041.62
2023-01-20T07:44:45.191Z,100051.14
2023-01-20T07:47:15.631Z,100060.91
2023-01-20T07:49:46.159Z,100067.17
2023-01-20T07:52:16.604Z,100068.52
2023-01-20T07:54:47.237Z,100077.46
2023-01-20T07:57:17.834Z,100083.23
2023-01-20T07:59:48.319Z,100082.46
2023-01-20T08:02:18.744Z,100072.27
2023-01-20T08:04:49.446Z,100067.98
2023-01-20T08:07:20.153Z,100062.33
2023-01-20T08:09:50.600Z,100059.52
2023-01-20T08:12:21.045Z,100064.66
2023-01-20T08:14:51.535Z,100069.55
2023-01-20T08:17:22.425Z,100068.73
2023-01-20T08:19:52.855Z,100063.48
2023-01-20T08:22:25.579Z,100075.38
2023-01-20T08:24:56.020Z,100085.40
2023-01-20T08:27:26.525Z,100088.48
2023-01-20T08:29:57.899Z,100091.83
2023-01-20T08:32:28.419Z,100097.70
2023-01-20T08:34:59.155Z,100107.56
2023-01-20T08:37:29.700Z,100113.50
2023-01-20T08:40:00.164Z,100114.63
2023-01-20T08:42:30.591Z,100113.98
2023-01-20T08:45:01.585Z,100120.90
2023-01-20T08:47:32.313Z,100119.82
2023-01-20T08:50:02.840Z,100118.83
2023-01-20T08:52:34.068Z,100117.02
2023-01-20T08:55:04.744Z,100116.98
2023-01-20T08:57:35.561Z,100116.77
2023-01-20T09:00:09.234Z,100120.04
2023-01-20T09:02:40.995Z,100123.38
2023-01-20T09:05:14.991Z,100121.77
2023-01-20T09:07:45.973Z,100125.24
2023-01-20T09:10:17.231Z,100128.79
2023-01-20T09:12:48.637Z,100136.30
2023-01-20T09:15:20.665Z,100139.30
2023-01-20T09:17:51.193Z,100142.17
2023-01-20T09:20:21.944Z,100143.27
2023-01-20T09:22:52.418Z,100146.27
2023-01-20T09:25:23.562Z,100150.48
2023-01-20T09:27:53.965Z,100154.24
2023-01-20T09:30:24.651Z,100152.98
2023-01-20T09:32:58.032Z,100150.68
2023-01-20T09:35:28.974Z,100148.06
2023-01-20T09:38:17.140Z,100146.81
2023-01-20T09:41:18.127Z,100148.20
2023-01-20T09:43:57.892Z,100146.69
2023-01-20T09:46:37.593Z,100144.60
2023-01-20T09:49:41.930Z,100143.39
2023-01-20T09:52:38.234Z,100140.91
2023-01-20T09:55:15.401Z,100135.30
2023-01-20T09:57:59.250Z,100141.70
2023-01-20T10:00:34.992Z,100138.50
2023-01-20T10:03:11.043Z,100138.16
2023-01-20T10:05:44.766Z,100138.99
2023-01-20T10:08:19.686Z,100136.61
2023-01-20T10:10:54.704Z,100133.97
2023-01-20T10:13:30.280Z,100129.06
2023-01-20T10:16:06.607Z,100129.23
2023-01-20T10:18:42.689Z,100123.78
2023-01-20T10:21:19.250Z,100118.16
2023-01-20T10:23:56.877Z,100114.02
2023-01-20T10:26:38.756Z,100115.55
2023-01-20T10:29:15.141Z,100113.67
2023-01-20T10:31:52.375Z,100117.09
2023-01-20T10:34:23.624Z,100118.13
2023-01-20T10:37:02.064Z,100117.82
2023-01-20T10:39:42.207Z,100120.41
2023-01-20T10:42:16.332Z,100122.70
2023-01-20T10:44:48.709Z,100129.95
2023-01-20T10:47:19.233Z,100132.63
2023-01-20T10:50:20.184Z,100138.10
2023-01-20T10:53:03.449Z,100144.15
2023-01-20T10:55:47.251Z,100143.33
2023-01-20T10:58:24.337Z,100138.90
2023-01-20T11:00:55.961Z,100140.98
2023-01-20T11:03:27.291Z,100138.27
2023-01-20T11:05:57.963Z,100141.84
2023-01-20T11:08:30.343Z,100147.65
2023-01-20T11:11:00.783Z,100151.54
2023-01-20T11:13:31.247Z,100157.10
2023-01-20T11:16:11.001Z,100160.31
2023-01-20T11:18:42.620Z,100162.48
2023-01-20T11:21:14.728Z,100164.09
2023-01-20T11:23:52.178Z,100164.02
2023-01-20T11:26:28.026Z,100162.98
2023-01-20T11:29:00.937Z,100163.89
2023-01-20T11:31:41.547Z,100166.23
2023-01-20T11:34:26.728Z,100166.16
2023-01-20T11:37:20.618Z,100165.77
2023-01-20T11:40:03.313Z,100166.42
2023-01-20T11:42:45.037Z,100164.90
2023-01-20T11:45:32.494Z,100165.52
2023-01-20T11:48:18.109Z,100166.06
2023-01-20T11:50:52.882Z,100166.62
2023-01-20T11:53:25.864Z,100166.30
2023-01-20T11:55:59.710Z,100166.66
2023-01-20T11:58:33.615Z,100169.77
2023-01-20T12:01:07.044Z,100171.58
2023-01-20T12:04:09.666Z,100179.60
2023-01-20T12:06:51.965Z,100184.95
2023-01-20T12:09:27.146Z,100187.10
2023-01-20T12:12:00.704Z,100188.80
2023-01-20T12:14:38.561Z,100187.70
2023-01-20T12:17:23.067Z,100189.15
2023-01-20T12:20:06.717Z,100189.02
2023-01-20T12:22:46.189Z,100190.59
2023-01-20T12:25:22.118Z,100190.02
2023-01-20T12:27:57.284Z,100189.96
2023-01-20T12:30:51.433Z,100188.54
2023-01-20T12:33:24.959Z,100184.36
2023-01-20T12:36:17.863Z,100188.33
2023-01-20T12:39:02.113Z,100184.57
2023-01-20T12:41:53.735Z,100180.40
2023-01-20T12:44:30.068Z,100181.61
2023-01-20T12:47:08.313Z,100183.19
2023-01-20T12:49:59.443Z,100182.90
2023-01-20T12:52:47.107Z,100182.73
2023-01-20T12:55:27.004Z,100186.00
2023-01-20T12:58:13.928Z,100188.98
2023-01-20T13:00:56.806Z,100190.54
2023-01-20T13:04:00.641Z,100189.15
2023-01-20T13:06:50.438Z,100188.02
2023-01-20T13:09:36.821Z,100185.55
2023-01-20T13:12:23.134Z,100186.67
2023-01-20T13:15:01.167Z,100189.88
2023-01-20T13:17:40.376Z,100193.23
2023-01-20T13:20:20.715Z,100198.42
2023-01-20T13:22:52.520Z,100199.91
2023-01-20T13:25:24.421Z,100203.66
2023-01-20T13:27:55.427Z,100205.20
2023-01-20T13:30:48.241Z,100206.81
2023-01-20T13:33:32.545Z,100214.80
2023-01-20T13:36:13.904Z,100217.30
2023-01-20T13:38:45.044Z,100219.77
2023-01-20T13:41:49.649Z,100221.20
2023-01-20T13:44:37.892Z,100223.45
2023-01-20T13:47:10.410Z,100225.66
2023-01-20T13:49:52.498Z,100231.09
2023-01-20T13:53:02.488Z,100237.30
2023-01-20T13:55:50.599Z,100232.80
2023-01-20T13:58:23.761Z,100235.09
2023-01-20T14:00:56.245Z,100237.06
2023-01-20T14:03:27.869Z,100242.52
2023-01-20T14:06:01.368Z,100250.35
2023-01-20T14:08:37.982Z,100252.16
2023-01-20T14:11:14.809Z,100256.71
2023-01-20T14:13:54.576Z,100257.08
2023-01-20T14:16:28.122Z,100256.52
2023-01-20T14:19:02.926Z,100261.92
2023-01-20T14:21:40.619Z,100264.78
2023-01-20T14:24:31.774Z,100266.45
2023-01-20T14:27:16.340Z,100270.98
2023-01-20T14:29:47.862Z,100274.63
2023-01-20T14:32:23.326Z,100274.77
2023-01-20T14:34:54.437Z,100274.17
2023-01-20T14:37:30.110Z,100276.52
2023-01-20T14:40:03.871Z,100277.95
2023-01-20T14:42:34.513Z,100286.46
2023-01-20T14:45:18.447Z,100287.58
2023-01-20T14:47:49.590Z,100286.78
2023-01-20T14:50:21.326Z,100289.86
2023-01-20T14:52:51.908Z,100291.75
2023-01-20T14:55:34.830Z,100297.15
2023-01-20T14:58:10.800Z,100295.46
2023-01-20T15:00:45.497Z,100297.83
2023-01-20T15:03:20.364Z,100298.27
2023-01-20T15:05:59.208Z,100303.29
2023-01-20T15:08:29.965Z,100302.24
2023-01-20T15:11:29.095Z,100307.41
2023-01-20T15:14:13.854Z,100312.42
2023-01-20T15:16:51.148Z,100312.13
2023-01-20T15:19:37.430Z,100309.84
2023-01-20T15:22:20.795Z,100312.09
2023-01-20T15:24:51.866Z,100316.05
2023-01-20T15:27:29.525Z,100317.97
2023-01-20T15:30:19.419Z,100316.20
2023-01-20T15:32:52.312Z,100316.11
2023-01-20T15:35:25.890Z,100312.34
2023-01-20T15:37:56.500Z,100316.36
2023-01-20T15:40:29.038Z,100326.44
2023-01-20T15:42:59.534Z,100331.36
2023-01-20T15:45:30.273Z,100337.73
2023-01-20T15:48:00.703Z,100344.95
2023-01-20T15:50:33.321Z,100351.84
2023-01-20T15:53:06.472Z,100353.86
2023-01-20T15:55:38.064Z,100355.60
2023-01-20T15:58:21.961Z,100358.52
2023-01-20T16:00:53.107Z,100357.44
2023-01-20T16:03:23.944Z,100360.55
2023-01-20T16:05:56.342Z,100359.21
2023-01-20T16:08:37.810Z,100361.36
2023-01-20T16:11:09.045Z,100356.91
2023-01-20T16:13:39.980Z,100357.11
2023-01-20T16:16:15.461Z,100352.51
2023-01-20T16:18:46.597Z,100353.84
2023-01-20T16:21:19.163Z,100354.77
2023-01-20T16:23:49.897Z,100357.10
2023-01-20T16:26:23.232Z,100361.96
2023-01-20T16:28:55.327Z,100365.90
2023-01-20T16:31:27.328Z,100367.10
2023-01-20T16:33:58.133Z,100371.41
2023-01-20T16:36:28.751Z,100373.53
2023-01-20T16:38:59.267Z,100373.25
2023-01-20T16:41:31.661Z,100377.60
2023-01-20T16:44:00.630Z,100381.45
2023-01-20T16:46:32.871Z,100389.64
2023-01-20T16:49:03.674Z,100400.66
2023-01-20T16:51:34.357Z,100407.88
2023-01-20T16:54:04.790Z,100410.02
2023-01-20T16:56:35.702Z,100409.63
2023-01-20T16:59:07.436Z,100408.54
2023-01-20T17:01:37.867Z,100412.92
2023-01-20T17:04:10.842Z,100421.88
2023-01-20T17:06:41.365Z,100423.88
2023-01-20T17:09:14.070Z,100427.34
2023-01-20T17:11:44.518Z,100431.10
2023-01-20T17:14:15.842Z,100440.85
2023-01-20T17:16:46.702Z,100439.54
2023-01-20T17:19:17.847Z,100445.20
2023-01-20T17:21:48.565Z,100452.05
2023-01-20T17:24:19.081Z,100454.84
2023-01-20T17:26:49.610Z,100455.42
2023-01-20T17:29:21.958Z,100455.52
2023-01-20T17:31:53.094Z,100460.98
2023-01-20T17:34:23.907Z,100464.65
2023-01-20T17:36:54.421Z,100465.69
2023-01-20T17:39:24.873Z,100473.17
2023-01-20T17:41:55.334Z,100478.11
2023-01-20T17:44:26.103Z,100482.36
2023-01-20T17:46:56.824Z,100484.13
2023-01-20T17:49:27.231Z,100484.65
2023-01-20T17:51:57.732Z,100486.94
2023-01-20T17:54:28.499Z,100488.04
2023-01-20T17:56:58.968Z,100490.40
2023-01-20T17:59:29.437Z,100487.02
2023-01-20T18:02:00.052Z,100488.52
2023-01-20T18:04:30.650Z,100490.61
2023-01-20T18:07:01.082Z,100493.54
2023-01-20T18:09:31.644Z,100496.83
2023-01-20T18:12:02.086Z,100494.09
2023-01-20T18:14:32.482Z,100491.52
2023-01-20T18:17:02.946Z,100496.45
2023-01-20T18:19:33.432Z,100494.08
2023-01-20T18:22:07.029Z,100497.02
2023-01-20T18:24:38.500Z,100495.46
2023-01-20T18:27:09.297Z,100497.12
2023-01-20T18:29:39.796Z,100490.73
2023-01-20T18:32:10.239Z,100491.70
2023-01-20T18:34:40.743Z,100497.36
2023-01-20T18:37:11.170Z,100494.86
2023-01-20T18:39:41.612Z,100493.31
2023-01-20T18:42:12.072Z,100487.30
2023-01-20T18:44:42.532Z,100488.36
2023-01-20T18:47:12.972Z,100488.91
2023-01-20T18:49:43.376Z,100486.73
2023-01-20T18:52:13.748Z,100491.95
2023-01-20T18:54:44.297Z,100495.02
2023-01-20T18:57:14.745Z,100497.77
2023-01-20T18:59:45.207Z,100496.75
2023-01-20T19:02:15.978Z,100501.29
2023-01-20T19:04:46.723Z,100503.27
2023-01-20T19:07:17.150Z,100503.67
2023-01-20T19:09:47.663Z,100509.98
2023-01-20T19:12:18.079Z,100507.73
2023-01-20T19:14:48.465Z,100509.13
2023-01-20T19:17:18.914Z,100516.59
2023-01-20T19:19:50.240Z,100514.91
2023-01-20T19:22:20.672Z,100519.67
2023-01-20T19:24:51.085Z,100513.80
2023-01-20T19:27:21.903Z,100514.58
2023-01-20T19:29:52.291Z,100515.31
2023-01-20T19:32:22.859Z,100516.23
2023-01-20T19:34:53.232Z,100516.52
2023-01-20T19:37:23.644Z,100520.37
2023-01-20T19:39:54.053Z,100519.25
2023-01-20T19:42:25.924Z,100517.48
2023-01-20T19:44:56.530Z,100523.39
2023-01-20T19:47:30.726Z,100526.30
2023-01-20T19:50:01.486Z,100528.70
2023-01-20T19:52:32.138Z,100533.83
2023-01-20T19:55:02.580Z,100538.65
2023-01-20T19:57:33.071Z,100537.50
2023-01-20T20:00:04.433Z,100540.95
2023-01-20T20:02:42.181Z,100544.34
2023-01-20T20:05:13.349Z,100543.29
2023-01-20T20:07:43.756Z,100548.62
2023-01-20T20:10:14.802Z,100549.77
2023-01-20T20:12:45.401Z,100546.80
2023-01-20T20:15:15.825Z,100530.50
2023-01-20T20:17:46.317Z,100530.50
2023-01-20T20:20:17.769Z,100534.90
2023-01-20T20:22:48.297Z,100533.66
2023-01-20T20:25:18.846Z,100530.30
2023-01-20T20:27:49.287Z,100531.46
2023-01-20T20:30:20.750Z,100530.96
2023-01-20T20:32:51.248Z,100523.48
2023-01-20T20:35:21.767Z,100523.86
2023-01-20T20:37:52.228Z,100525.80
2023-01-20T20:40:25.313Z,100523.36
2023-01-20T20:42:56.891Z,100518.82
2023-01-20T20:45:27.373Z,100516.16
2023-01-20T20:47:59.228Z,100513.29
2023-01-20T20:50:29.656Z,100510.46
2023-01-20T20:53:00.400Z,100509.34
2023-01-20T20:55:30.890Z,100504.63
2023-01-20T20:58:01.291Z,100501.36
2023-01-20T21:00:31.776Z,100501.38
2023-01-20T21:03:02.361Z,100501.13
2023-01-20T21:05:33.789Z,100506.44
2023-01-20T21:08:06.059Z,100512.25
2023-01-20T21:10:37.114Z,100514.45
2023-01-20T21:13:08.331Z,100517.61
2023-01-20T21:15:39.452Z,100516.92
2023-01-20T21:18:09.962Z,100512.98
2023-01-20T21:20:40.358Z,100506.83
2023-01-20T21:23:10.816Z,100508.92
2023-01-20T21:25:41.240Z,100515.22
2023-01-20T21:28:11.638Z,100516.64
2023-01-20T21:30:42.123Z,100516.70
2023-01-20T21:33:17.594Z,100520.67
2023-01-20T21:35:48.619Z,100526.16
2023-01-20T21:38:19.096Z,100526.75
2023-01-20T21:41:01.247Z,100530.13
2023-01-20T21:43:52.955Z,100531.02
2023-01-20T21:46:23.758Z,100536.91
2023-01-20T21:49:11.650Z,100541.20
2023-01-20T21:52:00.257Z,100549.46
2023-01-20T21:54:32.171Z,100551.98
2023-01-20T21:57:03.406Z,100554.91
2023-01-20T21:59:33.876Z,100551.83
2023-01-20T22:02:04.316Z,100548.74
2023-01-20T22:04:34.827Z,100552.61
2023-01-20T22:07:05.229Z,100550.42
2023-01-20T22:09:36.081Z,100547.04
2023-01-20T22:12:07.710Z,100543.75
2023-01-20T22:14:38.266Z,100538.92
2023-01-20T22:17:09.497Z,100538.42
2023-01-20T22:19:40.529Z,100531.84
2023-01-20T22:22:12.380Z,100526.14
2023-01-20T22:24:43.942Z,100523.80
2023-01-20T22:27:14.421Z,100518.23
2023-01-20T22:29:44.857Z,100513.84
2023-01-20T22:32:15.904Z,100505.89
2023-01-20T22:34:46.316Z,100510.05
2023-01-20T22:37:16.757Z,100523.45
2023-01-20T22:39:48.948Z,100528.52
2023-01-20T22:42:19.695Z,100527.08
2023-01-20T22:44:50.159Z,100523.97
2023-01-20T22:47:20.577Z,100521.00
2023-01-20T22:49:52.141Z,100513.42
2023-01-20T22:52:23.163Z,100521.06
2023-01-20T22:54:53.945Z,100523.80
2023-01-20T22:57:24.718Z,100530.83
2023-01-20T22:59:55.315Z,100531.13
2023-01-20T23:02:25.881Z,100533.70
2023-01-20T23:04:56.337Z,100533.74
2023-01-20T23:07:27.132Z,100534.00
2023-01-20T23:09:57.561Z,100531.00
2023-01-20T23:12:28.206Z,100528.15
2023-01-20T23:15:01.451Z,100532.81
2023-01-20T23:17:33.876Z,100534.61
2023-01-20T23:20:05.011Z,100527.79
2023-01-20T23:22:35.452Z,100532.48
2023-01-20T23:25:08.487Z,100530.68
2023-01-20T23:27:38.969Z,100536.06
2023-01-20T23:30:12.224Z,100547.09
2023-01-20T23:32:42.959Z,100542.98
2023-01-20T23:35:13.621Z,100528.39
2023-01-20T23:37:44.260Z,100527.77
2023-01-20T23:40:15.990Z,100526.22
2023-01-20T23:42:47.057Z,100532.41
2023-01-20T23:45:17.493Z,100537.32
2023-01-20T23:47:47.929Z,100536.34
2023-01-20T23:50:19.367Z,100538.27
2023-01-20T23:52:49.772Z,100542.95
2023-01-20T23:55:20.246Z,100537.80
2023-01-20T23:57:50.669Z,100538.48
